Time;durP1;ratioP1;P1;durP2;ratioP2;P2;SDS_P1;SDS_P2;PMS_P1;PMS_P2;Temp;Humidity;BMP_temperature;BMP_pressure;BME280_temperature;BME280_humidity;BME280_pressure;Samples;Min_cycle;Max_cycle;Signal;HPM_P1;HPM_P2
2022/07/06 00:01:54;;;;;;;2.05;1.30;;;23.60;55.10;;;;;;5043482;28;20438;-56
2022/07/06 00:04:19;;;;;;;4.03;1.17;;;23.60;55.10;;;;;;5044077;28;20510;-55
2022/07/06 00:06:45;;;;;;;2.05;1.70;;;23.60;55.20;;;;;;5044815;28;20025;-52
2022/07/06 00:09:10;;;;;;;2.63;0.90;;;23.60;55.20;;;;;;5025989;28;20108;-56
2022/07/06 00:11:36;;;;;;;3.08;1.30;;;23.60;55.20;;;;;;5025495;28;20040;-55
2022/07/06 00:14:01;;;;;;;2.95;1.10;;;23.60;55.30;;;;;;5027315;28;20037;-52
2022/07/06 00:16:28;;;;;;;1.48;1.27;;;23.60;55.30;;;;;;5044341;28;20025;-56
2022/07/06 00:18:53;;;;;;;3.08;1.25;;;23.60;55.50;;;;;;5043788;28;20033;-54
2022/07/06 00:21:19;;;;;;;1.77;1.10;;;23.60;55.60;;;;;;5026122;28;20407;-56
2022/07/06 00:23:44;;;;;;;1.67;1.23;;;23.60;55.50;;;;;;5044319;28;20037;-57
2022/07/06 00:26:10;;;;;;;3.00;1.23;;;23.60;55.50;;;;;;5043166;28;20105;-54
2022/07/06 00:28:35;;;;;;;1.85;1.10;;;23.60;55.70;;;;;;5043569;28;20087;-54
2022/07/06 00:31:01;;;;;;;1.77;1.08;;;23.60;55.60;;;;;;5044014;28;20134;-55
2022/07/06 00:33:26;;;;;;;3.40;1.02;;;23.60;55.60;;;;;;5043778;28;20464;-57
2022/07/06 00:35:52;;;;;;;1.25;1.10;;;23.60;55.70;;;;;;5043753;28;20106;-53
2022/07/06 00:38:17;;;;;;;1.33;1.23;;;23.60;55.60;;;;;;5043859;28;20403;-55
2022/07/06 00:40:43;;;;;;;2.03;1.35;;;23.60;55.70;;;;;;5042718;28;20049;-54
2022/07/06 00:43:08;;;;;;;2.08;1.20;;;23.60;55.80;;;;;;5043853;28;20036;-55
2022/07/06 00:45:34;;;;;;;1.48;1.02;;;23.60;55.70;;;;;;5043707;28;20033;-56
2022/07/06 00:47:59;;;;;;;1.63;0.95;;;23.60;55.70;;;;;;5043971;28;20036;-53
2022/07/06 00:50:25;;;;;;;1.65;1.10;;;23.60;56.00;;;;;;5043040;28;20033;-53
2022/07/06 00:52:55;;;;;;;2.08;1.35;;;23.60;55.80;;;;;;5043579;28;20027;-51
2022/07/06 00:55:26;;;;;;;1.67;1.10;;;23.60;55.90;;;;;;5043728;28;20048;-52
2022/07/06 00:57:52;;;;;;;1.77;1.25;;;23.60;55.90;;;;;;5043139;28;20033;-53
2022/07/06 01:00:19;;;;;;;1.63;1.45;;;23.60;56.10;;;;;;5042795;28;20086;-54
2022/07/06 01:02:45;;;;;;;1.88;1.30;;;23.60;56.10;;;;;;5043121;28;20040;-51
2022/07/06 01:05:12;;;;;;;2.83;1.30;;;23.60;56.60;;;;;;5025632;28;20550;-53
2022/07/06 01:07:38;;;;;;;2.85;1.35;;;23.60;56.20;;;;;;5042913;28;20064;-51
2022/07/06 01:10:04;;;;;;;2.35;1.20;;;23.60;56.20;;;;;;5042415;28;20036;-54
2022/07/06 01:12:30;;;;;;;2.15;1.10;;;23.60;56.20;;;;;;5043376;28;20403;-52
2022/07/06 01:14:56;;;;;;;2.22;1.35;;;23.60;56.00;;;;;;5025384;28;20099;-53
2022/07/06 01:17:21;;;;;;;1.55;1.00;;;23.60;56.20;;;;;;5025399;28;20499;-51
2022/07/06 01:19:47;;;;;;;2.17;1.10;;;23.60;56.10;;;;;;5042857;28;20052;-53
2022/07/06 01:22:12;;;;;;;3.33;1.23;;;23.60;56.30;;;;;;5042769;28;20036;-53
2022/07/06 01:24:38;;;;;;;3.05;1.10;;;23.60;56.20;;;;;;5043423;28;20099;-52
2022/07/06 01:27:04;;;;;;;2.95;1.23;;;23.60;56.20;;;;;;5025299;28;20952;-53
2022/07/06 01:29:30;;;;;;;2.00;0.88;;;23.60;56.30;;;;;;5043089;28;20685;-52
2022/07/06 01:31:55;;;;;;;2.95;1.35;;;23.60;56.10;;;;;;5043011;28;20028;-52
2022/07/06 01:34:21;;;;;;;2.60;1.40;;;23.60;56.30;;;;;;5042922;28;20507;-52
2022/07/06 01:36:46;;;;;;;1.45;1.10;;;23.60;56.30;;;;;;5042987;28;20032;-51
2022/07/06 01:39:12;;;;;;;1.20;1.10;;;23.60;56.30;;;;;;5042305;28;20036;-53
2022/07/06 01:41:37;;;;;;;1.40;1.30;;;23.50;56.40;;;;;;5042981;28;20022;-54
2022/07/06 01:44:03;;;;;;;2.33;1.00;;;23.50;56.30;;;;;;5043309;28;20037;-53
2022/07/06 01:46:29;;;;;;;1.63;1.30;;;23.50;56.40;;;;;;5042609;28;20558;-52
2022/07/06 01:48:54;;;;;;;1.63;1.23;;;23.50;56.40;;;;;;5042163;28;20049;-52
2022/07/06 01:51:20;;;;;;;2.28;1.15;;;23.50;56.60;;;;;;5043332;28;20026;-52
2022/07/06 01:53:45;;;;;;;1.25;1.00;;;23.50;56.50;;;;;;5042937;28;20687;-52
2022/07/06 01:56:11;;;;;;;2.22;1.10;;;23.50;56.50;;;;;;5025833;28;20090;-52
2022/07/06 01:58:37;;;;;;;1.80;1.17;;;23.50;56.40;;;;;;5042367;28;20024;-52
2022/07/06 02:01:09;;;;;;;2.03;1.10;;;23.50;56.40;;;;;;5043663;28;20591;-50
2022/07/06 02:03:35;;;;;;;1.88;1.10;;;23.50;56.40;;;;;;5018454;28;20086;-51
2022/07/06 02:06:00;;;;;;;1.80;1.10;;;23.50;56.50;;;;;;5043856;28;20033;-52
2022/07/06 02:08:26;;;;;;;1.23;1.13;;;23.50;56.50;;;;;;5042016;28;20025;-52
2022/07/06 02:10:51;;;;;;;1.30;1.10;;;23.50;56.50;;;;;;5042734;28;20022;-50
2022/07/06 02:13:17;;;;;;;1.60;1.30;;;23.50;56.40;;;;;;5042603;28;20032;-52
2022/07/06 02:15:42;;;;;;;2.92;1.30;;;23.50;56.40;;;;;;5042616;28;20698;-52
2022/07/06 02:18:08;;;;;;;3.22;1.38;;;23.50;56.40;;;;;;5042229;28;20029;-51
2022/07/06 02:20:33;;;;;;;2.20;1.30;;;23.50;56.50;;;;;;5042556;28;20036;-52
2022/07/06 02:22:59;;;;;;;1.42;1.00;;;23.50;56.60;;;;;;5042024;28;20025;-53
2022/07/06 02:25:24;;;;;;;1.38;1.00;;;23.50;56.70;;;;;;5025011;28;20449;-53
2022/07/06 02:27:50;;;;;;;1.15;1.02;;;23.50;56.70;;;;;;5042226;28;20032;-52
2022/07/06 02:30:15;;;;;;;1.15;1.05;;;23.50;56.80;;;;;;5041561;28;20033;-51
2022/07/06 02:32:41;;;;;;;3.33;1.02;;;23.50;56.80;;;;;;5042707;28;20032;-52
2022/07/06 02:35:06;;;;;;;1.38;1.13;;;23.50;56.60;;;;;;5045931;28;20048;-55
2022/07/06 02:37:32;;;;;;;1.95;1.10;;;23.50;56.70;;;;;;5046652;28;20033;-52
2022/07/06 02:39:57;;;;;;;1.77;1.42;;;23.50;56.80;;;;;;5045137;28;20030;-52
2022/07/06 02:42:23;;;;;;;2.92;1.10;;;23.50;56.80;;;;;;5045868;28;20021;-53
2022/07/06 02:44:48;;;;;;;2.55;1.27;;;23.50;56.80;;;;;;5028208;28;20426;-53
2022/07/06 02:47:14;;;;;;;4.97;1.10;;;23.50;56.70;;;;;;5045762;28;20048;-52
2022/07/06 02:49:39;;;;;;;2.42;1.08;;;23.50;56.80;;;;;;5045065;28;20053;-57
2022/07/06 02:52:05;;;;;;;1.75;1.00;;;23.50;56.80;;;;;;5045673;28;20025;-50
2022/07/06 02:54:30;;;;;;;1.42;1.33;;;23.50;56.80;;;;;;5045872;28;20044;-52
2022/07/06 02:56:56;;;;;;;3.35;1.20;;;23.50;56.70;;;;;;5045618;28;20032;-52
2022/07/06 02:59:21;;;;;;;3.33;1.27;;;23.50;56.80;;;;;;5044512;28;20033;-53
2022/07/06 03:01:47;;;;;;;1.15;1.00;;;23.50;56.70;;;;;;5027750;28;20723;-53
2022/07/06 03:04:12;;;;;;;2.00;1.13;;;23.50;56.70;;;;;;5045266;28;20107;-51
2022/07/06 03:06:38;;;;;;;1.75;1.15;;;23.50;56.60;;;;;;5045450;28;20048;-53
2022/07/06 03:09:03;;;;;;;1.73;1.20;;;23.50;56.60;;;;;;5045106;28;20025;-52
2022/07/06 03:11:29;;;;;;;1.95;1.20;;;23.50;56.60;;;;;;5045334;28;20049;-52
2022/07/06 03:13:54;;;;;;;3.35;1.52;;;23.40;56.60;;;;;;5045215;28;20041;-51
2022/07/06 03:16:20;;;;;;;1.92;1.10;;;23.40;56.50;;;;;;5045056;28;20072;-53
2022/07/06 03:18:45;;;;;;;1.98;1.33;;;23.40;56.60;;;;;;5044875;28;20053;-52
2022/07/06 03:21:11;;;;;;;5.38;1.10;;;23.40;56.50;;;;;;5045040;28;20499;-51
2022/07/06 03:23:36;;;;;;;3.70;1.40;;;23.40;56.40;;;;;;5045245;28;20032;-52
2022/07/06 03:26:02;;;;;;;2.30;1.30;;;23.40;57.20;;;;;;5045844;28;20032;-50
2022/07/06 03:28:27;;;;;;;5.57;1.38;;;23.40;56.50;;;;;;5044376;28;20052;-54
2022/07/06 03:30:53;;;;;;;1.17;1.00;;;23.40;56.50;;;;;;5045661;28;20479;-52
2022/07/06 03:33:19;;;;;;;1.92;1.23;;;23.40;56.40;;;;;;5046615;28;20029;-52
2022/07/06 03:35:44;;;;;;;1.75;1.10;;;23.40;56.40;;;;;;5045144;28;20057;-52
2022/07/06 03:38:10;;;;;;;2.90;1.17;;;23.40;56.40;;;;;;5047324;28;20036;-52
2022/07/06 03:40:35;;;;;;;2.08;1.20;;;23.40;56.40;;;;;;5064763;28;20102;-53
2022/07/06 03:43:01;;;;;;;3.28;1.35;;;23.40;56.30;;;;;;5066627;28;20360;-52
2022/07/06 03:45:26;;;;;;;2.03;1.10;;;23.40;56.40;;;;;;5065996;28;20398;-52
2022/07/06 03:47:52;;;;;;;1.83;1.00;;;23.40;56.30;;;;;;5065918;28;20368;-53
2022/07/06 03:50:17;;;;;;;1.80;1.02;;;23.40;56.30;;;;;;5064849;28;20268;-55
2022/07/06 03:52:43;;;;;;;3.67;1.20;;;23.40;56.30;;;;;;5064199;28;20029;-52
2022/07/06 03:55:10;;;;;;;1.15;1.05;;;23.40;56.30;;;;;;5065093;28;20060;-52
2022/07/06 03:57:35;;;;;;;1.15;0.95;;;23.40;56.30;;;;;;5064005;28;20021;-51
2022/07/06 04:00:01;;;;;;;1.65;1.05;;;23.40;56.30;;;;;;5062813;28;20112;-51
2022/07/06 04:02:27;;;;;;;1.33;1.10;;;23.40;56.20;;;;;;5064025;28;20025;-52
2022/07/06 04:04:52;;;;;;;7.32;1.77;;;23.40;56.40;;;;;;5054747;28;20044;-57
2022/07/06 04:07:18;;;;;;;4.13;1.50;;;23.30;55.60;;;;;;5049347;28;20036;-54
2022/07/06 04:09:43;;;;;;;4.63;1.83;;;23.20;55.70;;;;;;5053361;28;20087;-53
2022/07/06 04:12:09;;;;;;;3.45;1.45;;;23.20;55.40;;;;;;5043746;28;20028;-52
2022/07/06 04:14:35;;;;;;;10.43;1.95;;;23.20;55.60;;;;;;5043762;28;20040;-52
2022/07/06 04:17:51;;;;;;;7.15;1.70;;;23.20;55.20;;;;;;5044377;28;20455;-53
2022/07/06 04:19:46;;;;;;;11.13;1.88;;;23.20;55.40;;;;;;5043404;28;20025;-52
2022/07/06 04:22:11;;;;;;;8.55;2.33;;;23.20;55.10;;;;;;5043535;28;20458;-52
2022/07/06 04:24:36;;;;;;;15.48;2.67;;;23.10;55.00;;;;;;5043679;28;20029;-56
2022/07/06 04:27:02;;;;;;;10.35;2.30;;;23.10;55.00;;;;;;5044195;28;20029;-52
2022/07/06 04:29:28;;;;;;;10.50;1.98;;;23.10;55.00;;;;;;5042940;28;20118;-56
2022/07/06 04:31:53;;;;;;;7.53;2.20;;;23.00;55.00;;;;;;5044109;28;20029;-51
2022/07/06 04:34:19;;;;;;;10.65;2.03;;;23.00;54.90;;;;;;5043752;28;20024;-53
2022/07/06 04:36:44;;;;;;;11.63;2.28;;;23.00;54.90;;;;;;5042917;28;20029;-53
2022/07/06 04:39:10;;;;;;;11.63;2.80;;;23.00;54.90;;;;;;5042591;28;20025;-53
2022/07/06 04:41:35;;;;;;;15.88;2.78;;;23.00;55.10;;;;;;5043862;28;20021;-53
2022/07/06 04:44:01;;;;;;;13.98;2.50;;;23.00;55.10;;;;;;5043960;28;20056;-53
2022/07/06 04:46:26;;;;;;;11.38;2.10;;;23.00;55.30;;;;;;5043805;28;20487;-53
2022/07/06 04:48:52;;;;;;;7.68;1.95;;;23.10;55.30;;;;;;5043311;28;20048;-52
2022/07/06 04:51:17;;;;;;;5.20;1.70;;;23.00;55.20;;;;;;5061305;28;20068;-54
2022/07/06 04:53:43;;;;;;;5.20;1.90;;;23.10;55.20;;;;;;5099416;22;20424;-55
2022/07/06 04:56:08;;;;;;;5.70;2.00;;;23.10;55.10;;;;;;5090553;28;20494;-56
2022/07/06 04:58:34;;;;;;;3.35;1.65;;;23.00;54.90;;;;;;5082449;28;20049;-53
2022/07/06 05:00:59;;;;;;;5.25;1.60;;;23.00;54.70;;;;;;5077142;28;20111;-52
2022/07/06 05:03:25;;;;;;;5.18;2.30;;;23.00;54.70;;;;;;5083794;28;20498;-54
2022/07/06 05:05:50;;;;;;;8.07;2.10;;;23.00;54.70;;;;;;5083602;28;20042;-54
2022/07/06 05:08:16;;;;;;;5.15;1.75;;;23.00;54.70;;;;;;5083657;28;20460;-52
2022/07/06 05:10:41;;;;;;;11.63;2.20;;;23.00;55.00;;;;;;5082611;28;20020;-53
2022/07/06 05:13:07;;;;;;;5.15;2.00;;;23.00;54.90;;;;;;5083831;28;20111;-51
2022/07/06 05:15:32;;;;;;;8.70;2.30;;;23.10;54.90;;;;;;5083431;28;20054;-52
2022/07/06 05:17:58;;;;;;;10.05;1.85;;;23.00;54.70;;;;;;5065616;28;20081;-53
2022/07/06 05:20:23;;;;;;;6.45;1.83;;;23.10;54.90;;;;;;5082635;28;20024;-52
2022/07/06 05:22:49;;;;;;;7.18;1.90;;;23.00;54.90;;;;;;5083758;28;20039;-52
2022/07/06 05:25:14;;;;;;;3.90;2.00;;;23.00;55.20;;;;;;5083039;28;20032;-53
2022/07/06 05:27:40;;;;;;;6.13;1.88;;;23.00;54.90;;;;;;5083919;28;20027;-54
2022/07/06 05:30:06;;;;;;;4.43;2.35;;;22.90;54.90;;;;;;5083186;28;20589;-53
2022/07/06 05:32:31;;;;;;;13.75;2.65;;;22.80;55.20;;;;;;5065446;28;20043;-53
2022/07/06 05:34:57;;;;;;;6.55;2.75;;;22.90;55.50;;;;;;5083627;28;20028;-53
2022/07/06 05:37:22;;;;;;;6.80;2.28;;;22.80;54.60;;;;;;5083553;28;20568;-55
2022/07/06 05:39:49;;;;;;;4.63;2.00;;;22.80;54.50;;;;;;5083068;28;20053;-53
2022/07/06 05:42:14;;;;;;;3.45;1.83;;;22.50;53.40;;;;;;5083057;28;20495;-53
2022/07/06 05:44:40;;;;;;;11.60;2.53;;;22.30;55.80;;;;;;5065605;28;20129;-56
2022/07/06 05:52:33;;;;;;;9.95;2.05;;;22.50;55.30;;;;;;5083881;28;20028;-53
2022/07/06 05:54:59;;;;;;;8.73;2.30;;;22.40;55.70;;;;;;5083323;28;20040;-53
2022/07/06 05:57:24;;;;;;;17.02;3.53;;;22.70;55.60;;;;;;5082777;28;20032;-52
2022/07/06 05:59:50;;;;;;;9.05;2.50;;;22.80;55.60;;;;;;5082016;28;20529;-54
2022/07/06 06:02:15;;;;;;;10.40;2.40;;;22.70;53.60;;;;;;5083263;28;20123;-53
2022/07/06 06:04:41;;;;;;;8.63;2.17;;;22.40;54.40;;;;;;5082902;28;20044;-53
2022/07/06 06:07:06;;;;;;;11.93;2.35;;;22.40;54.80;;;;;;5083297;28;20580;-52
2022/07/06 06:09:32;;;;;;;9.65;2.45;;;22.40;55.50;;;;;;5067318;28;20509;-52
2022/07/06 06:11:57;;;;;;;5.25;1.98;;;22.40;55.30;;;;;;5068600;28;20024;-54
2022/07/06 06:14:23;;;;;;;6.63;1.70;;;22.30;53.20;;;;;;5086102;28;20028;-51
2022/07/06 06:16:48;;;;;;;7.88;2.08;;;22.40;55.10;;;;;;5086530;28;20031;-52
2022/07/06 06:19:14;;;;;;;10.70;1.98;;;22.60;54.90;;;;;;5085332;28;20602;-55
2022/07/06 06:21:40;;;;;;;7.38;2.10;;;22.60;54.00;;;;;;5086743;28;20080;-52
2022/07/06 06:24:06;;;;;;;8.65;3.00;;;22.30;55.00;;;;;;5087544;28;20028;-53
2022/07/06 06:26:31;;;;;;;11.18;2.17;;;22.30;54.90;;;;;;5079948;28;20028;-53
2022/07/06 06:28:57;;;;;;;7.05;2.08;;;22.20;54.90;;;;;;5088933;28;20031;-54
2022/07/06 06:31:22;;;;;;;8.68;2.35;;;21.90;56.20;;;;;;5090492;28;20028;-56
2022/07/06 06:33:48;;;;;;;5.93;1.98;;;22.00;55.10;;;;;;5091747;28;20032;-55
2022/07/06 06:36:13;;;;;;;5.35;1.60;;;22.30;54.60;;;;;;5071167;28;20522;-53
2022/07/06 06:38:39;;;;;;;5.30;1.27;;;22.30;53.80;;;;;;5091002;28;20111;-53
2022/07/06 06:41:05;;;;;;;7.05;1.92;;;22.30;54.20;;;;;;5091115;28;20402;-53
2022/07/06 06:43:30;;;;;;;9.07;1.75;;;22.60;53.90;;;;;;5072168;28;20134;-53
2022/07/06 06:45:56;;;;;;;2.50;1.60;;;22.40;53.60;;;;;;5088223;28;20494;-54
2022/07/06 06:48:21;;;;;;;4.50;1.65;;;21.80;53.50;;;;;;5084090;28;20043;-50
2022/07/06 06:50:47;;;;;;;5.43;1.70;;;21.70;52.10;;;;;;5082260;28;20089;-54
2022/07/06 06:53:12;;;;;;;4.25;1.90;;;21.90;54.50;;;;;;5082905;28;20165;-53
2022/07/06 06:55:38;;;;;;;3.20;1.42;;;22.00;53.90;;;;;;5065206;28;20032;-53
2022/07/06 06:58:03;;;;;;;4.05;1.88;;;21.90;53.30;;;;;;5082409;28;20040;-53
2022/07/06 07:00:29;;;;;;;8.75;2.45;;;22.00;52.70;;;;;;5081460;28;20040;-53
2022/07/06 07:02:54;;;;;;;12.00;2.35;;;21.70;52.90;;;;;;5081980;28;20498;-54
2022/07/06 07:05:20;;;;;;;8.20;2.20;;;21.60;55.10;;;;;;5082257;28;20052;-55
2022/07/06 07:07:45;;;;;;;4.93;1.90;;;21.60;54.30;;;;;;5082274;28;20099;-53
2022/07/06 07:10:11;;;;;;;9.20;2.45;;;21.70;54.30;;;;;;5081867;28;20032;-50
2022/07/06 07:12:43;;;;;;;4.65;1.67;;;21.50;54.70;;;;;;5082833;28;20068;-53
2022/07/06 07:15:09;;;;;;;6.20;2.15;;;21.30;54.90;;;;;;5082334;28;20032;-55
2022/07/06 07:17:34;;;;;;;10.05;2.15;;;21.30;51.90;;;;;;5080793;28;21784;-48
2022/07/06 07:20:00;;;;;;;4.07;1.70;;;21.30;56.90;;;;;;5079731;28;20040;-53
2022/07/06 07:22:25;;;;;;;7.90;2.17;;;21.30;54.70;;;;;;5082140;28;20035;-52
2022/07/06 07:24:51;;;;;;;5.25;1.73;;;21.60;55.40;;;;;;5082121;28;20028;-52
2022/07/06 07:27:16;;;;;;;5.00;2.08;;;21.70;55.00;;;;;;5080900;28;20035;-50
2022/07/06 07:29:42;;;;;;;7.25;1.77;;;21.80;54.60;;;;;;5081281;28;20028;-54
2022/07/06 07:32:07;;;;;;;3.58;1.90;;;22.00;53.40;;;;;;5063195;28;20116;-52
2022/07/06 07:34:33;;;;;;;5.65;2.05;;;21.60;55.80;;;;;;5081770;28;20028;-51
2022/07/06 07:36:58;;;;;;;5.45;1.73;;;21.60;54.50;;;;;;5081228;28;20028;-55
2022/07/06 07:39:24;;;;;;;5.47;1.67;;;21.60;53.70;;;;;;5063320;28;20089;-51
2022/07/06 07:41:50;;;;;;;3.90;1.27;;;21.80;55.30;;;;;;5081954;28;20398;-51
2022/07/06 07:44:16;;;;;;;4.22;1.90;;;21.90;54.60;;;;;;5080657;28;20032;-52
2022/07/06 07:46:41;;;;;;;2.63;1.55;;;22.20;54.40;;;;;;5080916;28;20406;-55
2022/07/06 07:49:07;;;;;;;5.43;1.88;;;22.20;54.50;;;;;;5081123;28;20520;-53
2022/07/06 07:51:33;;;;;;;5.88;1.70;;;22.20;54.50;;;;;;5081724;28;20525;-53
2022/07/06 07:53:58;;;;;;;8.77;2.33;;;22.10;54.10;;;;;;5081057;28;20040;-57
2022/07/06 07:56:24;;;;;;;3.60;1.33;;;22.00;53.90;;;;;;5080579;28;20028;-55
2022/07/06 07:58:49;;;;;;;4.95;1.70;;;22.20;54.50;;;;;;5080192;28;20031;-53
2022/07/06 08:01:15;;;;;;;2.55;1.20;;;22.10;52.80;;;;;;5080197;28;20083;-54
2022/07/06 08:03:40;;;;;;;10.40;2.17;;;21.90;53.90;;;;;;5080918;28;20024;-53
2022/07/06 08:06:06;;;;;;;6.07;1.60;;;22.00;53.30;;;;;;5081169;28;20393;-53
2022/07/06 08:08:31;;;;;;;3.17;1.30;;;22.10;53.00;;;;;;5080006;28;20036;-54
2022/07/06 08:10:57;;;;;;;4.28;1.48;;;22.00;52.70;;;;;;5080826;28;20048;-56
2022/07/06 08:13:22;;;;;;;4.95;1.48;;;22.10;52.80;;;;;;5080283;28;20111;-55
2022/07/06 08:15:48;;;;;;;2.63;1.05;;;22.00;52.60;;;;;;5080021;28;20426;-53
2022/07/06 08:18:13;;;;;;;4.35;1.40;;;21.70;53.60;;;;;;5080871;28;20039;-54
2022/07/06 08:20:39;;;;;;;6.60;1.52;;;21.90;53.30;;;;;;5061977;28;20031;-54
2022/07/06 08:23:04;;;;;;;7.15;1.83;;;22.00;53.00;;;;;;5075454;28;20177;-55
2022/07/06 08:25:30;;;;;;;10.13;1.67;;;22.10;52.90;;;;;;5080178;28;20035;-53
2022/07/06 08:27:56;;;;;;;4.07;1.63;;;22.10;52.80;;;;;;5080054;28;20766;-56
2022/07/06 08:30:21;;;;;;;5.10;1.70;;;22.20;53.20;;;;;;5078676;28;20039;-53
2022/07/06 08:32:47;;;;;;;7.38;1.23;;;22.30;53.20;;;;;;5079540;28;20084;-56
2022/07/06 08:35:12;;;;;;;3.90;1.20;;;22.10;51.20;;;;;;5079571;28;20059;-54
2022/07/06 08:37:38;;;;;;;4.30;1.15;;;22.20;52.90;;;;;;5080232;28;20036;-54
2022/07/06 08:40:05;;;;;;;2.13;1.10;;;22.20;52.70;;;;;;5061495;28;20054;-53
2022/07/06 08:42:32;;;;;;;2.97;1.17;;;22.30;52.70;;;;;;5079730;28;20028;-56
2022/07/06 08:45:02;;;;;;;2.28;1.08;;;22.30;52.90;;;;;;5061338;28;20414;-53
2022/07/06 08:47:28;;;;;;;3.05;1.23;;;22.20;51.50;;;;;;5061771;28;20035;-53
2022/07/06 08:49:54;;;;;;;3.83;1.13;;;21.90;51.10;;;;;;5060995;28;20024;-53
2022/07/06 08:52:20;;;;;;;1.92;1.05;;;21.90;53.00;;;;;;5079730;28;20043;-51
2022/07/06 08:54:45;;;;;;;4.35;0.90;;;22.00;52.90;;;;;;5080135;28;20047;-54
2022/07/06 08:57:11;;;;;;;7.07;1.80;;;22.10;52.90;;;;;;5061662;28;20096;-52
2022/07/06 08:59:38;;;;;;;2.95;1.20;;;22.00;51.90;;;;;;5061243;28;20035;-55
2022/07/06 09:02:03;;;;;;;5.57;1.40;;;21.90;53.00;;;;;;5079104;28;20034;-54
2022/07/06 09:04:29;;;;;;;3.35;1.75;;;22.00;52.90;;;;;;5080043;28;20475;-54
2022/07/06 09:06:54;;;;;;;7.80;1.52;;;21.80;52.60;;;;;;5045111;28;20131;-55
2022/07/06 09:09:24;;;;;;;6.28;1.98;;;22.00;52.90;;;;;;5079056;28;20078;-57
2022/07/06 09:11:49;;;;;;;10.00;1.67;;;22.10;52.60;;;;;;5061881;28;20035;-54
2022/07/06 09:14:15;;;;;;;6.68;1.60;;;22.10;52.20;;;;;;5060929;28;20035;-55
2022/07/06 09:16:40;;;;;;;7.05;1.70;;;22.10;52.10;;;;;;5079947;28;20086;-54
2022/07/06 09:19:06;;;;;;;8.75;1.70;;;22.10;51.90;;;;;;5078841;28;20445;-54
2022/07/06 09:21:32;;;;;;;6.03;1.80;;;22.20;52.30;;;;;;5080053;28;20032;-54
2022/07/06 09:23:59;;;;;;;6.28;1.88;;;22.20;52.20;;;;;;5061964;28;20024;-53
2022/07/06 09:26:25;;;;;;;6.28;1.65;;;22.20;52.00;;;;;;5079728;28;20028;-55
2022/07/06 09:28:50;;;;;;;10.07;1.67;;;22.30;52.40;;;;;;5043965;28;20028;-54
2022/07/06 09:31:16;;;;;;;10.10;2.20;;;22.30;52.40;;;;;;5078794;28;20051;-53
2022/07/06 09:34:01;;;;;;;12.43;2.03;;;22.30;52.60;;;;;;5080098;28;20082;-53
2022/07/06 09:36:38;;;;;;;8.07;1.75;;;22.30;52.70;;;;;;5059713;28;20059;-54
2022/07/06 09:39:20;;;;;;;6.78;1.90;;;22.20;51.70;;;;;;5041710;28;20090;-58
2022/07/06 09:41:47;;;;;;;3.95;1.75;;;22.10;51.30;;;;;;5079563;28;20526;-58
2022/07/06 09:44:12;;;;;;;3.97;1.90;;;22.10;51.00;;;;;;5083098;28;20036;-57
2022/07/06 09:46:41;;;;;;;9.43;1.98;;;22.00;51.70;;;;;;5084396;28;20399;-52
2022/07/06 09:49:06;;;;;;;5.13;1.60;;;22.20;52.60;;;;;;5064476;28;20027;-56
2022/07/06 09:51:32;;;;;;;4.40;1.40;;;22.10;51.50;;;;;;5083633;28;20016;-58
2022/07/06 09:53:59;;;;;;;3.88;1.40;;;22.20;51.00;;;;;;5065089;28;20161;-57
2022/07/06 09:56:47;;;;;;;3.75;1.60;;;22.20;52.00;;;;;;5083610;28;20036;-57
2022/07/06 09:59:14;;;;;;;4.55;1.42;;;22.30;51.60;;;;;;5076038;28;20029;-59
2022/07/06 10:01:40;;;;;;;4.00;1.10;;;22.10;51.70;;;;;;5083867;28;20031;-56
2022/07/06 10:04:09;;;;;;;2.60;1.60;;;22.00;51.60;;;;;;5065253;28;22279;-55
2022/07/06 10:06:35;;;;;;;6.03;2.22;;;22.20;51.90;;;;;;5065298;28;20089;-59
2022/07/06 10:09:01;;;;;;;7.65;1.33;;;22.10;49.40;;;;;;5082465;28;20036;-56
2022/07/06 10:11:28;;;;;;;11.40;2.58;;;21.90;51.80;;;;;;5083407;28;20107;-57
2022/07/06 10:13:55;;;;;;;12.60;3.13;;;21.80;52.10;;;;;;5081947;28;20016;-58
2022/07/06 10:16:24;;;;;;;9.32;3.45;;;22.00;52.00;;;;;;5082017;28;20093;-57
2022/07/06 10:18:50;;;;;;;7.88;2.33;;;22.00;49.90;;;;;;5082180;28;20032;-57
2022/07/06 10:21:16;;;;;;;10.18;2.25;;;21.80;52.10;;;;;;5048544;28;20036;-54
2022/07/06 10:23:42;;;;;;;12.98;2.35;;;22.10;52.40;;;;;;5065036;28;20055;-57
2022/07/06 10:26:07;;;;;;;7.38;2.50;;;21.90;52.40;;;;;;5065285;28;20388;-52
2022/07/06 10:28:33;;;;;;;5.07;2.05;;;22.10;52.40;;;;;;5047373;28;20107;-58
2022/07/06 10:30:58;;;;;;;5.55;1.65;;;22.10;52.20;;;;;;5064785;28;20448;-56
2022/07/06 10:33:24;;;;;;;8.63;2.50;;;22.10;50.70;;;;;;5083262;28;20039;-58
2022/07/06 10:35:49;;;;;;;3.15;1.60;;;21.90;51.90;;;;;;5048512;28;20111;-58
2022/07/06 10:38:16;;;;;;;3.83;1.65;;;22.00;51.50;;;;;;5064406;28;20046;-57
2022/07/06 10:43:36;;;;;;;9.48;2.55;;;22.10;52.40;;;;;;5067345;28;20035;-58
2022/07/06 10:46:05;;;;;;;16.75;2.55;;;21.90;51.40;;;;;;5064495;28;20094;-55
2022/07/06 10:48:35;;;;;;;6.90;2.53;;;22.10;52.30;;;;;;5063874;28;20035;-54
2022/07/06 10:51:02;;;;;;;13.20;2.58;;;22.10;51.80;;;;;;5082116;28;21034;-53
2022/07/06 10:53:36;;;;;;;7.80;2.83;;;22.20;51.60;;;;;;5081934;28;20032;-53
2022/07/06 10:56:09;;;;;;;7.95;2.60;;;22.20;50.90;;;;;;5065442;28;20451;-53
2022/07/06 10:58:48;;;;;;;9.82;2.75;;;22.30;50.70;;;;;;5081703;28;20069;-52
2022/07/06 11:01:13;;;;;;;8.23;2.45;;;22.10;51.20;;;;;;5073453;28;20028;-55
2022/07/06 11:03:43;;;;;;;7.35;2.15;;;22.20;51.20;;;;;;5082382;28;20055;-53
2022/07/06 11:06:10;;;;;;;6.80;1.90;;;22.10;50.40;;;;;;5082720;28;20032;-54
2022/07/06 11:08:43;;;;;;;3.95;1.60;;;22.10;49.70;;;;;;5046912;28;21255;-52
2022/07/06 11:11:22;;;;;;;8.77;2.55;;;22.20;49.90;;;;;;5063899;28;20120;-55
2022/07/06 11:13:49;;;;;;;3.03;1.52;;;22.20;49.50;;;;;;5081834;28;20031;-54
2022/07/06 11:16:16;;;;;;;3.60;1.60;;;22.20;49.60;;;;;;5082065;28;20036;-53
2022/07/06 11:18:42;;;;;;;8.18;1.95;;;22.10;49.50;;;;;;5063263;28;20024;-54
2022/07/06 11:21:23;;;;;;;5.13;2.08;;;22.00;48.50;;;;;;5064345;28;20044;-55
2022/07/06 11:23:49;;;;;;;5.78;1.70;;;22.00;50.00;;;;;;5082628;28;20039;-55
2022/07/06 11:26:15;;;;;;;5.05;1.75;;;21.80;50.00;;;;;;5082508;28;20081;-52
2022/07/06 11:28:40;;;;;;;8.13;2.17;;;22.00;49.60;;;;;;5082913;28;20051;-58
2022/07/06 11:31:06;;;;;;;5.30;2.03;;;22.00;51.20;;;;;;5064693;28;20040;-57
2022/07/06 11:33:32;;;;;;;4.38;1.80;;;22.10;50.20;;;;;;5082365;28;20048;-59
2022/07/06 11:36:19;;;;;;;8.35;1.70;;;22.20;50.30;;;;;;5081670;28;20036;-54
2022/07/06 11:38:46;;;;;;;3.47;1.83;;;22.10;50.10;;;;;;5057803;28;20498;-57
2022/07/06 11:41:13;;;;;;;7.53;2.08;;;22.30;50.50;;;;;;5081150;28;20054;-55
2022/07/06 11:43:42;;;;;;;3.83;1.45;;;22.20;50.10;;;;;;5064469;28;20028;-55
2022/07/06 11:46:24;;;;;;;8.05;1.50;;;22.20;50.20;;;;;;5053481;28;20044;-53
2022/07/06 11:48:54;;;;;;;7.50;1.30;;;22.00;49.80;;;;;;5080127;28;20028;-50
2022/07/06 11:51:20;;;;;;;7.50;1.48;;;22.20;49.70;;;;;;5062995;28;20032;-52
2022/07/06 11:53:46;;;;;;;4.32;1.70;;;22.20;49.80;;;;;;5046490;28;20044;-54
2022/07/06 11:56:13;;;;;;;5.13;1.70;;;22.20;50.20;;;;;;5063008;28;20043;-51
2022/07/06 11:58:39;;;;;;;2.28;1.63;;;22.10;48.80;;;;;;5080900;28;20028;-52
2022/07/06 12:01:07;;;;;;;6.20;1.58;;;22.10;48.10;;;;;;5080709;28;20537;-52
2022/07/06 12:03:32;;;;;;;8.90;1.75;;;22.10;49.90;;;;;;5080744;28;20035;-54
2022/07/06 12:05:58;;;;;;;7.43;2.03;;;22.10;50.10;;;;;;5081115;28;20024;-52
2022/07/06 12:08:24;;;;;;;8.10;2.17;;;22.10;48.60;;;;;;5080764;28;20085;-54
2022/07/06 12:10:49;;;;;;;7.80;1.33;;;21.90;47.70;;;;;;5079893;28;20020;-53
2022/07/06 12:13:15;;;;;;;5.03;1.73;;;22.00;50.50;;;;;;5061912;28;20165;-57
2022/07/06 12:15:40;;;;;;;7.93;1.80;;;22.00;48.20;;;;;;5062365;28;20032;-55
2022/07/06 12:18:06;;;;;;;4.57;1.50;;;21.90;49.30;;;;;;5080348;28;20513;-52
2022/07/06 12:20:31;;;;;;;4.60;1.50;;;21.70;48.80;;;;;;5062042;28;20060;-51
2022/07/06 12:23:03;;;;;;;5.07;1.50;;;21.90;49.30;;;;;;5062329;28;20074;-52
2022/07/06 12:25:33;;;;;;;3.80;1.33;;;22.00;49.90;;;;;;5080476;28;20079;-51
2022/07/06 12:27:58;;;;;;;7.13;1.80;;;22.00;49.10;;;;;;5079701;28;20032;-54
2022/07/06 12:30:24;;;;;;;6.60;1.75;;;21.80;49.20;;;;;;5080088;28;20078;-53
2022/07/06 12:33:15;;;;;;;2.85;1.60;;;21.80;47.70;;;;;;5080235;28;20109;-55
2022/07/06 12:35:43;;;;;;;2.97;1.40;;;21.80;48.70;;;;;;5036488;28;20428;-58
2022/07/06 12:38:09;;;;;;;4.20;1.98;;;21.90;47.90;;;;;;5079882;28;20405;-57
2022/07/06 12:40:36;;;;;;;13.88;2.70;;;21.80;47.60;;;;;;5079979;28;20030;-58
2022/07/06 12:43:02;;;;;;;6.82;3.00;;;21.80;48.40;;;;;;5080402;28;20042;-57
2022/07/06 12:45:28;;;;;;;4.50;1.80;;;21.60;49.20;;;;;;5080240;28;20047;-55
2022/07/06 12:48:04;;;;;;;6.95;2.20;;;21.60;49.10;;;;;;5079618;28;20024;-55
2022/07/06 12:50:32;;;;;;;16.95;2.97;;;21.80;50.00;;;;;;5079761;28;20051;-53